createdAt,value
2018-09-30T00:01:29.620Z,13.30
2018-09-30T00:03:58.872Z,13.30
2018-09-30T00:06:28.016Z,13.30
2018-09-30T00:08:55.782Z,13.30
2018-09-30T00:11:24.090Z,13.20
2018-09-30T00:13:53.508Z,13.20
2018-09-30T00:16:22.021Z,13.30
2018-09-30T00:18:50.261Z,13.20
2018-09-30T00:21:19.278Z,13.10
2018-09-30T00:23:57.948Z,13.00
2018-09-30T00:26:32.463Z,13.10
2018-09-30T00:29:03.107Z,13.00
2018-09-30T00:31:31.013Z,13.00
2018-09-30T00:34:05.575Z,13.00
2018-09-30T00:36:33.303Z,13.00
2018-09-30T00:39:01.418Z,12.80
2018-09-30T00:41:29.142Z,12.90
2018-09-30T00:44:09.650Z,12.90
2018-09-30T00:46:37.652Z,12.90
2018-09-30T00:49:05.830Z,12.90
2018-09-30T00:51:33.561Z,12.70
2018-09-30T00:54:01.510Z,12.80
2018-09-30T00:56:29.516Z,12.80
2018-09-30T00:58:57.360Z,12.80
2018-09-30T01:01:25.385Z,12.60
2018-09-30T01:03:53.558Z,12.60
2018-09-30T01:06:21.741Z,12.70
2018-09-30T01:08:49.484Z,12.60
2018-09-30T01:11:17.411Z,12.60
2018-09-30T01:13:45.883Z,12.60
2018-09-30T01:16:13.794Z,12.60
2018-09-30T01:18:41.606Z,12.60
2018-09-30T01:21:09.315Z,12.60
2018-09-30T01:23:37.204Z,12.50
2018-09-30T01:26:04.975Z,12.60
2018-09-30T01:28:33.667Z,12.50
2018-09-30T01:31:01.297Z,12.60
2018-09-30T01:33:29.252Z,12.60
2018-09-30T01:35:57.254Z,12.60
2018-09-30T01:38:25.550Z,12.60
2018-09-30T01:40:53.232Z,12.50
2018-09-30T01:43:21.084Z,12.40
2018-09-30T01:45:49.240Z,12.40
2018-09-30T01:48:17.029Z,12.40
2018-09-30T01:50:44.722Z,12.40
2018-09-30T01:53:12.464Z,12.40
2018-09-30T01:55:40.251Z,12.30
2018-09-30T01:58:07.940Z,12.30
2018-09-30T02:00:35.646Z,12.40
2018-09-30T02:03:03.307Z,12.30
2018-09-30T02:05:30.993Z,12.30
2018-09-30T02:07:58.738Z,12.30
2018-09-30T02:10:26.379Z,12.30
2018-09-30T02:12:54.198Z,12.30
2018-09-30T02:15:21.974Z,12.20
2018-09-30T02:17:49.649Z,12.10
2018-09-30T02:20:17.467Z,12.10
2018-09-30T02:22:45.242Z,12.10
2018-09-30T02:25:18.810Z,12.00
2018-09-30T02:27:46.994Z,12.10
2018-09-30T02:30:15.090Z,12.00
2018-09-30T02:32:42.794Z,12.10
2018-09-30T02:35:10.543Z,12.10
2018-09-30T02:37:38.166Z,11.90
2018-09-30T02:40:05.975Z,11.90
2018-09-30T02:42:34.528Z,11.90
2018-09-30T02:45:02.280Z,11.80
2018-09-30T02:47:29.934Z,11.60
2018-09-30T02:49:57.606Z,11.70
2018-09-30T02:52:25.417Z,11.70
2018-09-30T02:54:53.072Z,11.70
2018-09-30T02:57:20.780Z,11.60
2018-09-30T02:59:48.445Z,11.70
2018-09-30T03:02:16.143Z,11.70
2018-09-30T03:04:43.875Z,11.60
2018-09-30T03:07:16.945Z,11.60
2018-09-30T03:09:44.627Z,11.70
2018-09-30T03:12:12.355Z,11.60
2018-09-30T03:14:40.113Z,11.70
2018-09-30T03:17:07.780Z,11.70
2018-09-30T03:19:35.571Z,11.70
2018-09-30T03:22:03.740Z,11.60
2018-09-30T03:24:31.512Z,11.60
2018-09-30T03:26:59.383Z,11.70
2018-09-30T03:29:27.111Z,11.70
2018-09-30T03:31:54.991Z,11.70
2018-09-30T03:34:23.369Z,11.60
2018-09-30T03:36:51.169Z,11.50
2018-09-30T03:39:19.236Z,11.40
2018-09-30T03:41:47.319Z,11.40
2018-09-30T03:44:15.168Z,11.50
2018-09-30T03:46:43.259Z,11.50
2018-09-30T03:49:11.290Z,11.60
2018-09-30T03:51:39.140Z,11.60
2018-09-30T03:54:07.275Z,11.50
2018-09-30T03:56:35.262Z,11.60
2018-09-30T03:59:03.070Z,11.60
2018-09-30T04:01:31.211Z,11.60
2018-09-30T04:03:59.034Z,11.50
2018-09-30T04:06:26.872Z,11.40
2018-09-30T04:08:54.570Z,11.20
2018-09-30T04:11:22.276Z,11.30
2018-09-30T04:13:50.707Z,11.30
2018-09-30T04:16:18.983Z,11.30
2018-09-30T04:18:47.830Z,11.20
2018-09-30T04:21:16.515Z,11.30
2018-09-30T04:23:44.351Z,11.20
2018-09-30T04:26:12.138Z,11.30
2018-09-30T04:28:39.957Z,11.30
2018-09-30T04:31:07.926Z,11.20
2018-09-30T04:33:35.899Z,11.10
2018-09-30T04:36:03.578Z,11.10
2018-09-30T04:38:31.243Z,11.00
2018-09-30T04:40:58.915Z,10.90
2018-09-30T04:43:27.061Z,10.80
2018-09-30T04:45:55.909Z,10.80
2018-09-30T04:48:24.702Z,10.80
2018-09-30T04:50:52.535Z,10.70
2018-09-30T04:53:20.309Z,10.80
2018-09-30T04:55:48.316Z,10.70
2018-09-30T04:58:15.913Z,10.60
2018-09-30T05:00:43.732Z,10.70
2018-09-30T05:03:11.433Z,10.80
2018-09-30T05:05:39.394Z,10.60
2018-09-30T05:08:07.307Z,10.80
2018-09-30T05:10:36.035Z,10.70
2018-09-30T05:13:03.988Z,10.80
2018-09-30T05:15:32.172Z,10.70
2018-09-30T05:17:59.871Z,10.70
2018-09-30T05:20:27.784Z,10.70
2018-09-30T05:22:55.498Z,10.70
2018-09-30T05:25:23.172Z,10.60
2018-09-30T05:27:50.991Z,10.70
2018-09-30T05:30:19.005Z,10.80
2018-09-30T05:32:46.769Z,10.90
2018-09-30T05:35:14.737Z,10.90
2018-09-30T05:37:42.631Z,10.80
2018-09-30T05:40:10.813Z,10.80
2018-09-30T05:42:38.648Z,10.70
2018-09-30T05:45:06.519Z,10.70
2018-09-30T05:47:34.551Z,10.80
2018-09-30T05:50:02.571Z,10.80
2018-09-30T05:52:31.657Z,10.80
2018-09-30T05:54:59.533Z,10.80
2018-09-30T05:57:27.444Z,10.80
2018-09-30T05:59:55.531Z,10.90
2018-09-30T06:02:24.655Z,10.70
2018-09-30T06:04:54.544Z,10.80
2018-09-30T06:07:22.412Z,10.80
2018-09-30T06:09:50.188Z,10.70
2018-09-30T06:12:17.869Z,10.90
2018-09-30T06:14:45.605Z,10.90
2018-09-30T06:17:13.413Z,10.90
2018-09-30T06:19:41.080Z,10.90
2018-09-30T06:22:09.954Z,10.90
2018-09-30T06:24:37.773Z,11.00
2018-09-30T06:27:05.680Z,10.90
2018-09-30T06:29:33.299Z,10.90
2018-09-30T06:32:01.179Z,10.80
2018-09-30T06:34:29.067Z,10.80
2018-09-30T06:36:56.847Z,10.90
2018-09-30T06:39:24.568Z,11.00
2018-09-30T06:41:52.304Z,11.00
2018-09-30T06:44:20.104Z,11.00
2018-09-30T06:46:48.316Z,11.00
2018-09-30T06:49:16.058Z,11.10
2018-09-30T06:51:43.790Z,11.00
2018-09-30T06:56:44.849Z,11.20
2018-09-30T06:59:13.261Z,11.30
2018-09-30T07:01:41.178Z,11.20
2018-09-30T07:04:08.939Z,11.20
2018-09-30T07:06:36.652Z,11.30
2018-09-30T07:09:06.247Z,11.40
2018-09-30T07:11:34.158Z,11.40
2018-09-30T07:14:02.588Z,11.20
2018-09-30T07:16:30.700Z,11.30
2018-09-30T07:18:58.966Z,11.40
2018-09-30T07:21:32.153Z,11.50
2018-09-30T07:24:05.091Z,11.60
2018-09-30T07:26:33.179Z,11.60
2018-09-30T07:29:00.941Z,11.60
2018-09-30T07:31:29.536Z,11.70
2018-09-30T07:33:58.094Z,11.80
2018-09-30T07:36:27.552Z,11.80
2018-09-30T07:38:57.332Z,11.70
2018-09-30T07:41:25.850Z,11.90
2018-09-30T07:43:54.375Z,11.90
2018-09-30T07:46:22.343Z,11.80
2018-09-30T07:48:50.192Z,12.00
2018-09-30T07:51:18.104Z,11.90
2018-09-30T07:53:45.919Z,11.90
2018-09-30T07:56:13.627Z,12.10
2018-09-30T07:58:41.252Z,12.20
2018-09-30T08:01:09.682Z,12.10
2018-09-30T08:03:38.311Z,12.10
2018-09-30T08:06:06.246Z,12.30
2018-09-30T08:08:34.057Z,12.40
2018-09-30T08:11:04.580Z,12.40
2018-09-30T08:13:32.446Z,12.50
2018-09-30T08:16:00.059Z,12.60
2018-09-30T08:18:27.874Z,12.70
2018-09-30T08:20:55.955Z,12.70
2018-09-30T08:23:24.176Z,12.80
2018-09-30T08:26:03.939Z,12.90
2018-09-30T08:28:33.403Z,12.90
2018-09-30T08:31:01.204Z,13.10
2018-09-30T08:33:29.473Z,13.10
2018-09-30T08:36:02.734Z,13.20
2018-09-30T08:38:32.334Z,13.20
2018-09-30T08:41:03.667Z,13.20
2018-09-30T08:43:35.343Z,13.30
2018-09-30T08:46:03.192Z,13.40
2018-09-30T08:48:31.608Z,13.50
2018-09-30T08:51:00.104Z,13.50
2018-09-30T08:53:28.370Z,13.60
2018-09-30T08:55:57.441Z,13.70
2018-09-30T08:58:30.642Z,13.70
2018-09-30T09:01:04.393Z,13.70
2018-09-30T09:03:32.219Z,13.70
2018-09-30T09:06:00.087Z,13.90
2018-09-30T09:08:27.771Z,13.90
2018-09-30T09:10:55.804Z,14.00
2018-09-30T09:13:23.525Z,13.90
2018-09-30T09:15:51.252Z,13.90
2018-09-30T09:18:19.012Z,14.00
2018-09-30T09:20:46.625Z,14.10
2018-09-30T09:23:14.946Z,14.20
2018-09-30T09:25:42.695Z,14.20
2018-09-30T09:28:11.496Z,14.30
2018-09-30T09:30:39.969Z,14.40
2018-09-30T09:33:07.915Z,14.40
2018-09-30T09:35:36.717Z,14.50
2018-09-30T09:38:23.380Z,14.50
2018-09-30T09:40:51.018Z,14.60
2018-09-30T09:43:18.701Z,14.60
2018-09-30T09:45:46.650Z,14.60
2018-09-30T09:48:14.394Z,14.70
2018-09-30T09:50:42.516Z,14.80
2018-09-30T09:53:10.251Z,14.80
2018-09-30T09:55:37.963Z,14.90
2018-09-30T09:58:05.716Z,14.90
2018-09-30T10:00:39.173Z,15.00
2018-09-30T10:03:06.996Z,15.00
2018-09-30T10:05:35.118Z,15.10
2018-09-30T10:08:03.068Z,15.10
2018-09-30T10:10:30.801Z,15.20
2018-09-30T10:13:03.933Z,15.30
2018-09-30T10:15:31.922Z,15.20
2018-09-30T10:18:01.295Z,15.30
2018-09-30T10:20:29.431Z,15.40
2018-09-30T10:22:57.193Z,15.40
2018-09-30T10:25:25.764Z,15.40
2018-09-30T10:27:53.686Z,15.40
2018-09-30T10:30:21.669Z,15.40
2018-09-30T10:32:49.359Z,15.40
2018-09-30T10:35:19.018Z,15.50
2018-09-30T10:37:46.662Z,15.60
2018-09-30T10:40:16.022Z,15.60
2018-09-30T10:42:44.381Z,15.70
2018-09-30T10:45:12.179Z,15.80
2018-09-30T10:47:39.851Z,15.80
2018-09-30T10:50:07.473Z,15.90
2018-09-30T10:52:35.199Z,15.80
2018-09-30T10:55:03.107Z,15.90
2018-09-30T10:57:30.773Z,15.90
2018-09-30T10:59:58.733Z,16.00
2018-09-30T11:02:26.770Z,16.10
2018-09-30T11:04:54.406Z,16.10
2018-09-30T11:07:22.568Z,16.20
2018-09-30T11:09:57.074Z,16.20
2018-09-30T11:12:24.815Z,16.30
2018-09-30T11:14:56.366Z,16.30
2018-09-30T11:17:32.711Z,16.40
2018-09-30T11:20:01.979Z,16.40
2018-09-30T11:22:29.996Z,16.50
2018-09-30T11:24:58.249Z,16.60
2018-09-30T11:27:27.158Z,16.60
2018-09-30T11:29:56.002Z,16.70
2018-09-30T11:32:23.840Z,16.70
2018-09-30T11:34:51.644Z,16.80
2018-09-30T11:37:33.636Z,16.90
2018-09-30T11:40:02.010Z,17.00
2018-09-30T11:42:30.016Z,17.00
2018-09-30T11:44:59.085Z,17.10
2018-09-30T11:47:26.873Z,17.10
2018-09-30T11:49:54.686Z,17.20
2018-09-30T11:52:22.603Z,17.30
2018-09-30T11:57:24.055Z,17.50
2018-09-30T11:59:52.000Z,17.60
2018-09-30T12:02:19.761Z,17.70
2018-09-30T12:04:54.152Z,17.70
2018-09-30T12:07:31.903Z,17.90
2018-09-30T12:09:59.858Z,18.00
2018-09-30T12:12:27.550Z,18.10
2018-09-30T12:15:17.096Z,18.30
2018-09-30T12:17:45.052Z,18.40
2018-09-30T12:20:12.852Z,18.60
2018-09-30T12:22:40.827Z,18.80
2018-09-30T12:25:09.198Z,19.00
2018-09-30T12:27:37.058Z,19.10
2018-09-30T12:30:08.020Z,19.20
2018-09-30T12:32:36.652Z,19.30
2018-09-30T12:35:05.576Z,19.50
2018-09-30T12:37:40.257Z,19.60
2018-09-30T12:40:08.270Z,19.40
2018-09-30T12:42:36.036Z,19.50
2018-09-30T12:45:03.722Z,19.50
2018-09-30T12:47:31.755Z,19.20
2018-09-30T12:50:00.390Z,19.10
2018-09-30T12:52:28.155Z,19.20
2018-09-30T12:54:56.143Z,19.10
2018-09-30T12:57:23.943Z,19.20
2018-09-30T12:59:51.895Z,19.20
2018-09-30T13:02:19.628Z,19.20
2018-09-30T13:04:47.310Z,19.20
2018-09-30T13:07:15.042Z,19.20
2018-09-30T13:09:47.301Z,19.10
2018-09-30T13:12:15.085Z,19.10
2018-09-30T13:14:43.488Z,19.10
2018-09-30T13:17:11.860Z,19.20
2018-09-30T13:19:40.668Z,19.10
2018-09-30T13:22:09.276Z,19.10
2018-09-30T13:24:37.451Z,19.20
2018-09-30T13:27:05.135Z,19.10
2018-09-30T13:29:32.815Z,19.20
2018-09-30T13:32:06.722Z,19.20
2018-09-30T13:34:35.064Z,19.20
2018-09-30T13:37:02.954Z,19.00
2018-09-30T13:39:30.651Z,19.10
2018-09-30T13:41:58.615Z,19.10
2018-09-30T13:44:26.313Z,19.20
2018-09-30T13:46:53.954Z,19.10
2018-09-30T13:49:21.684Z,19.20
2018-09-30T13:51:49.718Z,19.20
2018-09-30T13:54:17.575Z,19.10
2018-09-30T13:56:45.328Z,19.20
2018-09-30T13:59:13.614Z,19.20
2018-09-30T14:01:41.472Z,19.20
2018-09-30T14:04:09.280Z,19.20
2018-09-30T14:06:37.785Z,19.30
2018-09-30T14:09:07.264Z,19.20
2018-09-30T14:11:34.995Z,19.30
2018-09-30T14:14:03.837Z,19.30
2018-09-30T14:16:32.027Z,19.40
2018-09-30T14:19:01.807Z,19.30
2018-09-30T14:21:29.669Z,19.30
2018-09-30T14:24:03.647Z,19.30
2018-09-30T14:26:31.627Z,19.30
2018-09-30T14:29:00.377Z,19.30
2018-09-30T14:31:28.179Z,19.30
2018-09-30T14:33:56.978Z,19.30
2018-09-30T14:36:26.605Z,19.30
2018-09-30T14:38:54.271Z,19.30
2018-09-30T14:41:22.272Z,19.40
2018-09-30T14:43:50.076Z,19.40
2018-09-30T14:46:18.116Z,19.40
2018-09-30T14:48:46.085Z,19.50
2018-09-30T14:51:14.052Z,19.60
2018-09-30T14:53:41.775Z,19.60
2018-09-30T14:56:09.740Z,19.60
2018-09-30T14:58:38.069Z,19.60
2018-09-30T15:01:06.230Z,19.60
2018-09-30T15:03:33.984Z,19.70
2018-09-30T15:06:02.055Z,19.70
2018-09-30T15:08:30.234Z,19.70
2018-09-30T15:10:58.431Z,19.70
2018-09-30T15:13:32.114Z,19.70
2018-09-30T15:15:59.805Z,19.80
2018-09-30T15:21:17.136Z,19.90
2018-09-30T15:23:44.958Z,19.80
2018-09-30T15:26:13.092Z,19.80
2018-09-30T15:28:41.080Z,19.80
2018-09-30T15:31:08.975Z,19.90
2018-09-30T15:33:36.688Z,19.80
2018-09-30T15:36:04.828Z,19.90
2018-09-30T15:38:32.793Z,19.80
2018-09-30T15:41:00.460Z,19.90
2018-09-30T15:43:30.978Z,19.90
2018-09-30T15:45:58.853Z,19.90
2018-09-30T15:48:26.788Z,19.90
2018-09-30T15:51:00.544Z,19.90
2018-09-30T15:53:28.647Z,19.80
2018-09-30T15:55:56.690Z,19.80
2018-09-30T15:58:25.059Z,19.80
2018-09-30T16:00:55.208Z,19.70
2018-09-30T16:03:23.680Z,19.70
2018-09-30T16:05:51.663Z,19.70
2018-09-30T16:08:19.387Z,19.70
2018-09-30T16:10:48.427Z,19.60
2018-09-30T16:13:16.304Z,19.60
2018-09-30T16:15:44.215Z,19.60
2018-09-30T16:18:12.122Z,19.70
2018-09-30T16:23:34.100Z,19.60
2018-09-30T16:26:02.011Z,19.70
2018-09-30T16:28:30.002Z,19.60
2018-09-30T16:30:57.726Z,19.60
2018-09-30T16:33:30.249Z,19.60
2018-09-30T16:35:57.936Z,19.60
2018-09-30T16:38:26.969Z,19.50
2018-09-30T16:40:54.972Z,19.30
2018-09-30T16:46:29.744Z,19.30
2018-09-30T16:48:57.924Z,19.30
2018-09-30T16:51:26.027Z,19.30
2018-09-30T16:53:54.244Z,19.30
2018-09-30T16:56:38.597Z,19.30
2018-09-30T16:59:10.993Z,19.20
2018-09-30T17:04:54.633Z,19.20
2018-09-30T17:07:24.063Z,19.20
2018-09-30T17:13:21.824Z,19.10
2018-09-30T17:16:06.953Z,19.10
2018-09-30T17:18:35.277Z,19.00
2018-09-30T17:21:03.164Z,19.00
2018-09-30T17:23:38.457Z,19.00
2018-09-30T17:26:06.397Z,18.90
2018-09-30T17:28:35.780Z,18.90
2018-09-30T17:31:10.712Z,18.90
2018-09-30T17:33:38.678Z,18.80
2018-09-30T17:36:07.412Z,18.70
2018-09-30T17:38:35.143Z,18.70
2018-09-30T17:41:02.799Z,18.70
2018-09-30T17:43:30.936Z,18.70
2018-09-30T17:45:59.700Z,18.70
2018-09-30T17:48:27.779Z,18.60
2018-09-30T17:50:55.934Z,18.60
2018-09-30T17:53:23.774Z,18.60
2018-09-30T17:55:52.126Z,18.50
2018-09-30T17:58:20.150Z,18.50
2018-09-30T18:00:48.012Z,18.40
2018-09-30T18:03:16.189Z,18.40
2018-09-30T18:05:50.118Z,18.30
2018-09-30T18:08:21.641Z,18.30
2018-09-30T18:10:56.796Z,18.30
2018-09-30T18:13:25.626Z,18.20
2018-09-30T18:15:53.864Z,18.20
2018-09-30T18:18:21.744Z,18.10
2018-09-30T18:20:49.471Z,18.00
2018-09-30T18:23:17.207Z,17.90
2018-09-30T18:25:45.003Z,17.90
2018-09-30T18:28:12.845Z,18.00
2018-09-30T18:30:41.838Z,17.90
2018-09-30T18:33:09.931Z,17.80
2018-09-30T18:35:37.877Z,17.80
2018-09-30T18:38:08.609Z,17.80
2018-09-30T18:40:42.504Z,17.80
2018-09-30T18:43:17.854Z,17.80
2018-09-30T18:45:47.052Z,17.70
2018-09-30T18:48:17.788Z,17.70
2018-09-30T18:50:47.701Z,17.60
2018-09-30T18:53:15.603Z,17.50
2018-09-30T18:55:43.906Z,17.50
2018-09-30T18:58:11.828Z,17.50
2018-09-30T19:00:40.381Z,17.50
2018-09-30T19:03:09.116Z,17.50
2018-09-30T19:05:38.037Z,17.40
2018-09-30T19:08:05.994Z,17.30
2018-09-30T19:10:33.898Z,17.20
2018-09-30T19:13:01.652Z,17.20
2018-09-30T19:15:29.471Z,17.10
2018-09-30T19:17:58.450Z,17.00
2018-09-30T19:20:31.149Z,17.00
2018-09-30T19:23:00.163Z,17.00
2018-09-30T19:25:36.630Z,16.90
2018-09-30T19:28:04.968Z,16.90
2018-09-30T19:30:32.873Z,16.80
2018-09-30T19:33:00.815Z,16.70
2018-09-30T19:35:28.799Z,16.70
2018-09-30T19:40:41.628Z,16.80
2018-09-30T19:45:57.048Z,16.70
2018-09-30T19:48:25.600Z,16.60
2018-09-30T19:50:54.910Z,16.50
2018-09-30T19:53:28.437Z,16.40
2018-09-30T19:55:56.967Z,16.50
2018-09-30T20:00:58.974Z,16.20
2018-09-30T20:03:33.364Z,16.30
2018-09-30T20:06:03.135Z,16.30
2018-09-30T20:08:34.052Z,16.30
2018-09-30T20:11:02.235Z,16.20
2018-09-30T20:13:37.509Z,16.30
2018-09-30T20:16:06.880Z,16.20
2018-09-30T20:18:37.483Z,16.20
2018-09-30T20:21:06.135Z,16.10
2018-09-30T20:23:49.099Z,16.20
2018-09-30T20:26:22.113Z,16.10
2018-09-30T20:31:38.128Z,16.10
2018-09-30T20:34:10.040Z,16.10
2018-09-30T20:36:38.288Z,16.00
2018-09-30T20:39:06.934Z,16.00
2018-09-30T20:41:37.375Z,15.90
2018-09-30T20:44:09.224Z,15.90
2018-09-30T20:46:40.235Z,15.80
2018-09-30T20:49:08.381Z,15.80
2018-09-30T20:51:41.438Z,15.80
2018-09-30T20:54:10.328Z,15.80
2018-09-30T20:56:57.987Z,15.80
2018-09-30T20:59:28.754Z,15.80
2018-09-30T21:01:57.758Z,15.60
2018-09-30T21:04:29.347Z,15.60
2018-09-30T21:06:57.595Z,15.60
2018-09-30T21:12:05.174Z,15.60
2018-09-30T21:14:33.100Z,15.60
2018-09-30T21:17:01.566Z,15.60
2018-09-30T21:19:35.356Z,15.50
2018-09-30T21:22:03.822Z,15.60
2018-09-30T21:24:32.040Z,15.50
2018-09-30T21:27:01.769Z,15.50
2018-09-30T21:29:29.666Z,15.50
2018-09-30T21:31:57.864Z,15.40
2018-09-30T21:34:25.988Z,15.50
2018-09-30T21:36:54.408Z,15.50
2018-09-30T21:39:22.171Z,15.30
2018-09-30T21:41:50.376Z,15.40
2018-09-30T21:44:21.984Z,15.40
2018-09-30T21:46:49.946Z,15.40
2018-09-30T21:49:17.897Z,15.40
2018-09-30T21:51:58.084Z,15.40
2018-09-30T21:54:30.455Z,15.50
2018-09-30T21:56:59.852Z,15.50
2018-09-30T21:59:28.495Z,15.50
2018-09-30T22:01:56.975Z,15.40
2018-09-30T22:04:25.209Z,15.40
2018-09-30T22:06:55.093Z,15.50
2018-09-30T22:09:23.239Z,15.50
2018-09-30T22:11:51.236Z,15.50
2018-09-30T22:14:19.093Z,15.50
2018-09-30T22:16:47.085Z,15.40
2018-09-30T22:19:15.201Z,15.40
2018-09-30T22:21:43.186Z,15.50
2018-09-30T22:24:12.060Z,15.40
2018-09-30T22:26:40.042Z,15.40
2018-09-30T22:29:07.865Z,15.30
2018-09-30T22:31:35.715Z,15.30
2018-09-30T22:34:03.534Z,15.30
2018-09-30T22:36:31.393Z,15.30
2018-09-30T22:38:59.287Z,15.30
2018-09-30T22:41:26.968Z,15.30
2018-09-30T22:43:54.777Z,15.30
2018-09-30T22:46:27.664Z,15.30
2018-09-30T22:48:55.631Z,15.20
2018-09-30T22:51:24.532Z,15.30
2018-09-30T22:53:56.617Z,15.20
2018-09-30T22:56:24.415Z,15.30
2018-09-30T22:58:52.230Z,15.30
2018-09-30T23:01:19.943Z,15.20
2018-09-30T23:03:47.596Z,15.30
2018-09-30T23:06:16.269Z,15.20
2018-09-30T23:08:44.872Z,15.20
2018-09-30T23:11:12.549Z,15.20
2018-09-30T23:13:41.147Z,15.20
2018-09-30T23:16:10.375Z,15.20
2018-09-30T23:18:38.092Z,15.20
2018-09-30T23:21:05.684Z,15.20
2018-09-30T23:23:35.195Z,15.20
2018-09-30T23:26:03.319Z,15.20
2018-09-30T23:28:31.803Z,15.20
2018-09-30T23:30:59.554Z,15.20
2018-09-30T23:33:27.399Z,15.20
2018-09-30T23:35:55.020Z,15.20
2018-09-30T23:38:23.312Z,15.20
2018-09-30T23:40:51.704Z,15.10
2018-09-30T23:43:26.296Z,15.20
2018-09-30T23:45:54.033Z,15.10
2018-09-30T23:48:23.135Z,15.20
2018-09-30T23:50:50.756Z,15.10
2018-09-30T23:53:18.425Z,15.10
2018-09-30T23:55:46.216Z,15.00
2018-09-30T23:58:14.816Z,15.00
